sensor_id;sensor_type;location;lat;lon;timestamp;temperature;humidity
19138;DHT22;68178;52.188;5.598;2023-05-10T00:02:06;14.30;99.90
19138;DHT22;68178;52.188;5.598;2023-05-10T00:04:31;14.20;99.90
19138;DHT22;68178;52.188;5.598;2023-05-10T00:06:57;14.20;99.90
19138;DHT22;68178;52.188;5.598;2023-05-10T00:09:23;14.20;99.90
19138;DHT22;68178;52.188;5.598;2023-05-10T00:11:49;14.30;99.90
19138;DHT22;68178;52.188;5.598;2023-05-10T00:14:14;14.30;99.90
19138;DHT22;68178;52.188;5.598;2023-05-10T00:16:40;14.30;99.90
19138;DHT22;68178;52.188;5.598;2023-05-10T00:19:06;14.30;99.90
19138;DHT22;68178;52.188;5.598;2023-05-10T00:21:31;14.30;99.90
19138;DHT22;68178;52.188;5.598;2023-05-10T00:23:59;14.40;99.90
19138;DHT22;68178;52.188;5.598;2023-05-10T00:26:24;14.40;99.90
19138;DHT22;68178;52.188;5.598;2023-05-10T00:28:50;14.40;99.90
19138;DHT22;68178;52.188;5.598;2023-05-10T00:31:15;14.40;99.90
19138;DHT22;68178;52.188;5.598;2023-05-10T00:33:41;14.30;99.90
19138;DHT22;68178;52.188;5.598;2023-05-10T00:36:07;14.30;99.90
19138;DHT22;68178;52.188;5.598;2023-05-10T00:38:33;14.30;99.90
19138;DHT22;68178;52.188;5.598;2023-05-10T00:40:59;14.20;99.90
19138;DHT22;68178;52.188;5.598;2023-05-10T00:43:24;14.30;99.90
19138;DHT22;68178;52.188;5.598;2023-05-10T00:45:50;14.30;99.90
19138;DHT22;68178;52.188;5.598;2023-05-10T00:48:16;14.40;99.90
19138;DHT22;68178;52.188;5.598;2023-05-10T00:50:41;14.40;99.90
19138;DHT22;68178;52.188;5.598;2023-05-10T00:53:10;14.30;99.90
19138;DHT22;68178;52.188;5.598;2023-05-10T00:55:36;14.40;99.90
19138;DHT22;68178;52.188;5.598;2023-05-10T00:58:01;14.40;99.90
19138;DHT22;68178;52.188;5.598;2023-05-10T01:00:27;14.40;99.90
19138;DHT22;68178;52.188;5.598;2023-05-10T01:02:53;14.50;99.90
19138;DHT22;68178;52.188;5.598;2023-05-10T01:05:19;14.40;99.90
19138;DHT22;68178;52.188;5.598;2023-05-10T01:07:45;14.40;99.90
19138;DHT22;68178;52.188;5.598;2023-05-10T01:10:10;14.40;99.90
19138;DHT22;68178;52.188;5.598;2023-05-10T01:12:38;14.40;99.90
19138;DHT22;68178;52.188;5.598;2023-05-10T01:15:09;14.50;99.90
19138;DHT22;68178;52.188;5.598;2023-05-10T01:17:38;14.50;99.90
19138;DHT22;68178;52.188;5.598;2023-05-10T01:20:05;14.40;99.90
19138;DHT22;68178;52.188;5.598;2023-05-10T01:23:03;14.40;99.90
19138;DHT22;68178;52.188;5.598;2023-05-10T01:25:54;14.40;99.90
19138;DHT22;68178;52.188;5.598;2023-05-10T01:34:27;14.30;99.90
19138;DHT22;68178;52.188;5.598;2023-05-10T01:36:59;14.40;99.90
19138;DHT22;68178;52.188;5.598;2023-05-10T01:39:29;14.30;99.90
19138;DHT22;68178;52.188;5.598;2023-05-10T01:42:05;14.20;99.90
19138;DHT22;68178;52.188;5.598;2023-05-10T01:44:58;14.20;99.90
19138;DHT22;68178;52.188;5.598;2023-05-10T01:49:55;14.30;99.90
19138;DHT22;68178;52.188;5.598;2023-05-10T01:52:33;14.30;99.90
19138;DHT22;68178;52.188;5.598;2023-05-10T01:55:05;14.30;99.90
19138;DHT22;68178;52.188;5.598;2023-05-10T01:57:37;14.30;99.90
19138;DHT22;68178;52.188;5.598;2023-05-10T02:00:07;14.30;99.90
19138;DHT22;68178;52.188;5.598;2023-05-10T02:02:37;14.40;99.90
19138;DHT22;68178;52.188;5.598;2023-05-10T02:05:05;14.40;99.90
19138;DHT22;68178;52.188;5.598;2023-05-10T02:07:36;14.40;99.90
19138;DHT22;68178;52.188;5.598;2023-05-10T02:10:04;14.40;99.90
19138;DHT22;68178;52.188;5.598;2023-05-10T02:12:32;14.40;99.90
19138;DHT22;68178;52.188;5.598;2023-05-10T02:15:02;14.40;99.90
19138;DHT22;68178;52.188;5.598;2023-05-10T02:17:31;14.50;99.90
19138;DHT22;68178;52.188;5.598;2023-05-10T02:19:58;14.40;99.90
19138;DHT22;68178;52.188;5.598;2023-05-10T02:22:26;14.40;99.90
19138;DHT22;68178;52.188;5.598;2023-05-10T02:24:57;14.30;99.90
19138;DHT22;68178;52.188;5.598;2023-05-10T02:27:24;14.30;99.90
19138;DHT22;68178;52.188;5.598;2023-05-10T02:29:51;14.30;99.90
19138;DHT22;68178;52.188;5.598;2023-05-10T02:32:18;14.20;99.90
19138;DHT22;68178;52.188;5.598;2023-05-10T02:34:45;14.20;99.90
19138;DHT22;68178;52.188;5.598;2023-05-10T02:37:15;14.40;99.90
19138;DHT22;68178;52.188;5.598;2023-05-10T02:39:43;14.40;99.90
19138;DHT22;68178;52.188;5.598;2023-05-10T02:42:18;14.30;99.90
19138;DHT22;68178;52.188;5.598;2023-05-10T02:44:47;14.30;99.90
19138;DHT22;68178;52.188;5.598;2023-05-10T02:47:12;14.30;99.90
19138;DHT22;68178;52.188;5.598;2023-05-10T02:49:38;14.30;99.90
19138;DHT22;68178;52.188;5.598;2023-05-10T02:52:05;14.30;99.90
19138;DHT22;68178;52.188;5.598;2023-05-10T02:54:34;14.30;99.90
19138;DHT22;68178;52.188;5.598;2023-05-10T02:57:04;14.30;99.90
19138;DHT22;68178;52.188;5.598;2023-05-10T02:59:31;14.20;99.90
19138;DHT22;68178;52.188;5.598;2023-05-10T03:01:58;14.30;99.90
19138;DHT22;68178;52.188;5.598;2023-05-10T03:04:25;14.30;99.90
19138;DHT22;68178;52.188;5.598;2023-05-10T03:06:51;14.20;99.90
19138;DHT22;68178;52.188;5.598;2023-05-10T03:09:17;14.20;99.90
19138;DHT22;68178;52.188;5.598;2023-05-10T03:17:10;14.30;99.90
19138;DHT22;68178;52.188;5.598;2023-05-10T03:22:08;14.30;99.90
19138;DHT22;68178;52.188;5.598;2023-05-10T03:24:35;14.40;99.90
19138;DHT22;68178;52.188;5.598;2023-05-10T03:27:02;14.30;99.90
19138;DHT22;68178;52.188;5.598;2023-05-10T03:29:29;14.20;99.90
19138;DHT22;68178;52.188;5.598;2023-05-10T03:31:58;14.30;99.90
19138;DHT22;68178;52.188;5.598;2023-05-10T03:34:25;14.40;99.90
19138;DHT22;68178;52.188;5.598;2023-05-10T03:36:50;14.40;99.90
19138;DHT22;68178;52.188;5.598;2023-05-10T03:39:16;14.30;99.90
19138;DHT22;68178;52.188;5.598;2023-05-10T03:41:42;14.20;99.90
19138;DHT22;68178;52.188;5.598;2023-05-10T03:44:10;14.20;99.90
19138;DHT22;68178;52.188;5.598;2023-05-10T03:46:35;14.10;99.90
19138;DHT22;68178;52.188;5.598;2023-05-10T03:49:01;14.10;99.90
19138;DHT22;68178;52.188;5.598;2023-05-10T03:51:26;14.00;99.90
19138;DHT22;68178;52.188;5.598;2023-05-10T03:53:54;13.90;99.90
19138;DHT22;68178;52.188;5.598;2023-05-10T03:56:19;14.10;99.90
19138;DHT22;68178;52.188;5.598;2023-05-10T03:58:46;14.00;99.90
19138;DHT22;68178;52.188;5.598;2023-05-10T04:01:11;14.10;99.90
19138;DHT22;68178;52.188;5.598;2023-05-10T04:03:37;14.10;99.90
19138;DHT22;68178;52.188;5.598;2023-05-10T04:06:03;14.00;99.90
19138;DHT22;68178;52.188;5.598;2023-05-10T04:08:29;14.10;99.90
19138;DHT22;68178;52.188;5.598;2023-05-10T04:11:02;14.10;99.90
19138;DHT22;68178;52.188;5.598;2023-05-10T04:13:29;14.10;99.90
19138;DHT22;68178;52.188;5.598;2023-05-10T04:15:55;14.00;99.90
19138;DHT22;68178;52.188;5.598;2023-05-10T04:18:20;13.80;99.90
19138;DHT22;68178;52.188;5.598;2023-05-10T04:20:46;13.80;99.90
19138;DHT22;68178;52.188;5.598;2023-05-10T04:23:11;13.90;99.90
19138;DHT22;68178;52.188;5.598;2023-05-10T04:25:37;13.90;99.90
19138;DHT22;68178;52.188;5.598;2023-05-10T04:28:02;14.00;99.90
19138;DHT22;68178;52.188;5.598;2023-05-10T04:30:28;14.00;99.90
19138;DHT22;68178;52.188;5.598;2023-05-10T04:32:54;14.00;99.90
19138;DHT22;68178;52.188;5.598;2023-05-10T04:35:20;14.00;99.90
19138;DHT22;68178;52.188;5.598;2023-05-10T04:37:45;13.90;99.90
19138;DHT22;68178;52.188;5.598;2023-05-10T04:40:11;13.90;99.90
19138;DHT22;68178;52.188;5.598;2023-05-10T04:42:37;13.90;99.90
19138;DHT22;68178;52.188;5.598;2023-05-10T04:45:05;13.90;99.90
19138;DHT22;68178;52.188;5.598;2023-05-10T04:47:31;13.90;99.90
19138;DHT22;68178;52.188;5.598;2023-05-10T04:49:57;13.90;99.90
19138;DHT22;68178;52.188;5.598;2023-05-10T04:52:22;14.00;99.90
19138;DHT22;68178;52.188;5.598;2023-05-10T04:54:48;14.00;99.90
19138;DHT22;68178;52.188;5.598;2023-05-10T04:57:13;14.10;99.90
19138;DHT22;68178;52.188;5.598;2023-05-10T04:59:39;14.10;99.90
19138;DHT22;68178;52.188;5.598;2023-05-10T05:02:07;13.90;99.90
19138;DHT22;68178;52.188;5.598;2023-05-10T05:04:33;13.80;99.90
19138;DHT22;68178;52.188;5.598;2023-05-10T05:06:58;13.90;99.90
19138;DHT22;68178;52.188;5.598;2023-05-10T05:09:24;14.00;99.90
19138;DHT22;68178;52.188;5.598;2023-05-10T05:11:49;14.10;99.90
19138;DHT22;68178;52.188;5.598;2023-05-10T05:14:15;14.00;99.90
19138;DHT22;68178;52.188;5.598;2023-05-10T05:16:40;14.10;99.90
19138;DHT22;68178;52.188;5.598;2023-05-10T05:19:06;14.00;99.90
19138;DHT22;68178;52.188;5.598;2023-05-10T05:21:32;13.90;99.90
19138;DHT22;68178;52.188;5.598;2023-05-10T05:23:57;14.00;99.90
19138;DHT22;68178;52.188;5.598;2023-05-10T05:26:23;14.00;99.90
19138;DHT22;68178;52.188;5.598;2023-05-10T05:28:49;14.00;99.90
19138;DHT22;68178;52.188;5.598;2023-05-10T05:31:17;14.00;99.90
19138;DHT22;68178;52.188;5.598;2023-05-10T05:33:43;14.20;99.90
19138;DHT22;68178;52.188;5.598;2023-05-10T05:36:09;14.20;99.90
19138;DHT22;68178;52.188;5.598;2023-05-10T05:38:34;14.20;99.90
19138;DHT22;68178;52.188;5.598;2023-05-10T05:41:00;14.20;99.90
19138;DHT22;68178;52.188;5.598;2023-05-10T05:43:26;14.10;99.90
19138;DHT22;68178;52.188;5.598;2023-05-10T05:45:54;14.20;99.90
19138;DHT22;68178;52.188;5.598;2023-05-10T05:48:23;14.10;99.90
19138;DHT22;68178;52.188;5.598;2023-05-10T05:50:49;14.10;99.90
19138;DHT22;68178;52.188;5.598;2023-05-10T05:53:14;14.10;99.90
19138;DHT22;68178;52.188;5.598;2023-05-10T05:55:50;14.10;99.90
19138;DHT22;68178;52.188;5.598;2023-05-10T05:58:16;14.20;99.90
19138;DHT22;68178;52.188;5.598;2023-05-10T06:00:41;14.00;99.90
19138;DHT22;68178;52.188;5.598;2023-05-10T06:03:09;14.10;99.90
19138;DHT22;68178;52.188;5.598;2023-05-10T06:05:35;14.10;99.90
19138;DHT22;68178;52.188;5.598;2023-05-10T06:08:01;14.10;99.90
19138;DHT22;68178;52.188;5.598;2023-05-10T06:10:26;14.10;99.90
19138;DHT22;68178;52.188;5.598;2023-05-10T06:12:52;14.00;99.90
19138;DHT22;68178;52.188;5.598;2023-05-10T06:15:18;14.10;99.90
19138;DHT22;68178;52.188;5.598;2023-05-10T06:17:43;14.10;99.90
19138;DHT22;68178;52.188;5.598;2023-05-10T06:20:10;14.00;99.90
19138;DHT22;68178;52.188;5.598;2023-05-10T06:22:36;14.00;99.90
19138;DHT22;68178;52.188;5.598;2023-05-10T06:25:01;14.00;99.90
19138;DHT22;68178;52.188;5.598;2023-05-10T06:27:27;13.90;99.90
19138;DHT22;68178;52.188;5.598;2023-05-10T06:29:52;14.10;99.90
19138;DHT22;68178;52.188;5.598;2023-05-10T06:32:18;14.10;99.90
19138;DHT22;68178;52.188;5.598;2023-05-10T06:34:43;14.00;99.90
19138;DHT22;68178;52.188;5.598;2023-05-10T06:37:09;14.00;99.90
19138;DHT22;68178;52.188;5.598;2023-05-10T06:39:35;13.90;99.90
19138;DHT22;68178;52.188;5.598;2023-05-10T06:42:02;13.90;99.90
19138;DHT22;68178;52.188;5.598;2023-05-10T06:44:29;14.00;99.90
19138;DHT22;68178;52.188;5.598;2023-05-10T06:46:55;14.00;99.90
19138;DHT22;68178;52.188;5.598;2023-05-10T06:49:21;13.90;99.90
19138;DHT22;68178;52.188;5.598;2023-05-10T06:51:47;14.00;99.90
19138;DHT22;68178;52.188;5.598;2023-05-10T06:54:13;13.90;99.90
19138;DHT22;68178;52.188;5.598;2023-05-10T06:56:39;14.10;99.90
19138;DHT22;68178;52.188;5.598;2023-05-10T06:59:05;14.00;99.90
19138;DHT22;68178;52.188;5.598;2023-05-10T07:01:30;14.10;99.90
19138;DHT22;68178;52.188;5.598;2023-05-10T07:03:56;14.20;99.90
19138;DHT22;68178;52.188;5.598;2023-05-10T07:06:21;14.20;99.90
19138;DHT22;68178;52.188;5.598;2023-05-10T07:08:47;14.40;99.90
19138;DHT22;68178;52.188;5.598;2023-05-10T07:11:12;14.30;99.90
19138;DHT22;68178;52.188;5.598;2023-05-10T07:13:38;14.30;99.90
19138;DHT22;68178;52.188;5.598;2023-05-10T07:16:06;14.30;99.90
19138;DHT22;68178;52.188;5.598;2023-05-10T07:18:33;14.40;99.90
19138;DHT22;68178;52.188;5.598;2023-05-10T07:20:58;14.60;99.90
19138;DHT22;68178;52.188;5.598;2023-05-10T07:23:24;14.50;99.90
19138;DHT22;68178;52.188;5.598;2023-05-10T07:25:50;14.50;99.90
19138;DHT22;68178;52.188;5.598;2023-05-10T07:28:19;14.50;99.90
19138;DHT22;68178;52.188;5.598;2023-05-10T07:30:45;14.50;99.90
19138;DHT22;68178;52.188;5.598;2023-05-10T07:33:13;14.70;99.90
19138;DHT22;68178;52.188;5.598;2023-05-10T07:35:42;14.50;99.90
19138;DHT22;68178;52.188;5.598;2023-05-10T07:38:08;14.60;99.90
19138;DHT22;68178;52.188;5.598;2023-05-10T07:40:34;14.50;99.90
19138;DHT22;68178;52.188;5.598;2023-05-10T07:42:59;14.70;99.90
19138;DHT22;68178;52.188;5.598;2023-05-10T07:45:31;14.80;99.90
19138;DHT22;68178;52.188;5.598;2023-05-10T07:47:56;14.90;99.90
19138;DHT22;68178;52.188;5.598;2023-05-10T07:50:25;14.80;99.90
19138;DHT22;68178;52.188;5.598;2023-05-10T07:52:51;14.80;99.90
19138;DHT22;68178;52.188;5.598;2023-05-10T07:55:18;14.90;99.90
19138;DHT22;68178;52.188;5.598;2023-05-10T07:57:44;14.90;99.90
19138;DHT22;68178;52.188;5.598;2023-05-10T08:00:12;14.90;99.90
19138;DHT22;68178;52.188;5.598;2023-05-10T08:02:38;14.90;99.90
19138;DHT22;68178;52.188;5.598;2023-05-10T08:05:04;14.90;99.90
19138;DHT22;68178;52.188;5.598;2023-05-10T08:07:30;14.80;99.90
19138;DHT22;68178;52.188;5.598;2023-05-10T08:09:56;14.80;99.90
19138;DHT22;68178;52.188;5.598;2023-05-10T08:12:21;15.00;99.90
19138;DHT22;68178;52.188;5.598;2023-05-10T08:14:47;15.00;99.90
19138;DHT22;68178;52.188;5.598;2023-05-10T08:17:12;14.90;99.90
19138;DHT22;68178;52.188;5.598;2023-05-10T08:19:41;15.00;99.90
19138;DHT22;68178;52.188;5.598;2023-05-10T08:22:06;15.00;99.90
19138;DHT22;68178;52.188;5.598;2023-05-10T08:24:32;14.90;99.90
19138;DHT22;68178;52.188;5.598;2023-05-10T08:26:57;14.80;99.90
19138;DHT22;68178;52.188;5.598;2023-05-10T08:29:23;14.90;99.90
19138;DHT22;68178;52.188;5.598;2023-05-10T08:31:48;15.00;99.90
19138;DHT22;68178;52.188;5.598;2023-05-10T08:34:14;14.90;99.90
19138;DHT22;68178;52.188;5.598;2023-05-10T08:36:40;14.90;99.90
19138;DHT22;68178;52.188;5.598;2023-05-10T08:39:05;14.90;99.90
19138;DHT22;68178;52.188;5.598;2023-05-10T08:41:33;14.80;99.90
19138;DHT22;68178;52.188;5.598;2023-05-10T08:44:04;14.70;99.90
19138;DHT22;68178;52.188;5.598;2023-05-10T08:46:31;14.70;99.90
19138;DHT22;68178;52.188;5.598;2023-05-10T08:49:01;14.50;99.90
19138;DHT22;68178;52.188;5.598;2023-05-10T08:51:34;14.50;99.90
19138;DHT22;68178;52.188;5.598;2023-05-10T08:54:02;14.50;99.90
19138;DHT22;68178;52.188;5.598;2023-05-10T08:56:28;14.70;99.90
19138;DHT22;68178;52.188;5.598;2023-05-10T08:58:54;14.70;99.90
19138;DHT22;68178;52.188;5.598;2023-05-10T09:01:21;14.80;99.90
19138;DHT22;68178;52.188;5.598;2023-05-10T09:03:47;14.80;99.90
19138;DHT22;68178;52.188;5.598;2023-05-10T09:06:13;15.00;99.90
19138;DHT22;68178;52.188;5.598;2023-05-10T09:08:41;15.00;99.90
19138;DHT22;68178;52.188;5.598;2023-05-10T09:11:08;15.00;99.90
19138;DHT22;68178;52.188;5.598;2023-05-10T09:13:35;14.90;99.90
19138;DHT22;68178;52.188;5.598;2023-05-10T09:16:02;14.90;99.90
19138;DHT22;68178;52.188;5.598;2023-05-10T09:18:28;14.90;99.90
19138;DHT22;68178;52.188;5.598;2023-05-10T09:20:54;15.10;99.90
19138;DHT22;68178;52.188;5.598;2023-05-10T09:23:19;15.10;99.90
19138;DHT22;68178;52.188;5.598;2023-05-10T09:25:45;15.20;99.90
19138;DHT22;68178;52.188;5.598;2023-05-10T09:28:11;15.20;99.90
19138;DHT22;68178;52.188;5.598;2023-05-10T09:30:37;15.20;99.90
19138;DHT22;68178;52.188;5.598;2023-05-10T09:33:03;15.20;99.90
19138;DHT22;68178;52.188;5.598;2023-05-10T09:35:30;15.20;99.90
19138;DHT22;68178;52.188;5.598;2023-05-10T09:37:58;15.40;99.90
19138;DHT22;68178;52.188;5.598;2023-05-10T09:40:26;15.40;99.90
19138;DHT22;68178;52.188;5.598;2023-05-10T09:43:08;15.50;99.90
19138;DHT22;68178;52.188;5.598;2023-05-10T09:45:35;15.50;99.90
19138;DHT22;68178;52.188;5.598;2023-05-10T09:48:04;15.50;99.90
19138;DHT22;68178;52.188;5.598;2023-05-10T09:50:30;15.70;99.90
19138;DHT22;68178;52.188;5.598;2023-05-10T09:53:00;15.70;99.90
19138;DHT22;68178;52.188;5.598;2023-05-10T09:58:04;16.20;99.90
19138;DHT22;68178;52.188;5.598;2023-05-10T10:00:39;16.40;99.90
19138;DHT22;68178;52.188;5.598;2023-05-10T10:03:18;16.50;99.90
19138;DHT22;68178;52.188;5.598;2023-05-10T10:05:45;16.40;99.90
19138;DHT22;68178;52.188;5.598;2023-05-10T10:08:11;16.70;99.90
19138;DHT22;68178;52.188;5.598;2023-05-10T10:10:37;16.80;99.90
19138;DHT22;68178;52.188;5.598;2023-05-10T10:13:06;16.80;99.90
19138;DHT22;68178;52.188;5.598;2023-05-10T10:15:32;16.80;99.90
19138;DHT22;68178;52.188;5.598;2023-05-10T10:17:58;17.10;99.90
19138;DHT22;68178;52.188;5.598;2023-05-10T10:20:25;17.00;99.90
19138;DHT22;68178;52.188;5.598;2023-05-10T10:22:51;17.00;99.90
19138;DHT22;68178;52.188;5.598;2023-05-10T10:25:17;17.10;99.90
19138;DHT22;68178;52.188;5.598;2023-05-10T10:30:41;16.80;99.90
19138;DHT22;68178;52.188;5.598;2023-05-10T10:36:07;16.80;99.90
19138;DHT22;68178;52.188;5.598;2023-05-10T10:39:01;17.00;99.90
19138;DHT22;68178;52.188;5.598;2023-05-10T10:41:35;16.90;99.90
19138;DHT22;68178;52.188;5.598;2023-05-10T10:47:05;17.10;99.90
19138;DHT22;68178;52.188;5.598;2023-05-10T10:49:52;17.20;99.90
19138;DHT22;68178;52.188;5.598;2023-05-10T10:52:58;17.20;99.90
19138;DHT22;68178;52.188;5.598;2023-05-10T10:55:19;17.30;99.90
19138;DHT22;68178;52.188;5.598;2023-05-10T10:57:52;17.30;99.90
19138;DHT22;68178;52.188;5.598;2023-05-10T11:02:59;17.20;99.90
19138;DHT22;68178;52.188;5.598;2023-05-10T11:08:18;17.30;99.90
19138;DHT22;68178;52.188;5.598;2023-05-10T11:10:52;17.30;99.90
19138;DHT22;68178;52.188;5.598;2023-05-10T11:13:30;17.40;99.90
19138;DHT22;68178;52.188;5.598;2023-05-10T11:15:56;17.40;99.90
19138;DHT22;68178;52.188;5.598;2023-05-10T11:18:27;17.40;99.90
19138;DHT22;68178;52.188;5.598;2023-05-10T11:21:01;17.40;99.90
19138;DHT22;68178;52.188;5.598;2023-05-10T11:23:50;17.30;99.90
19138;DHT22;68178;52.188;5.598;2023-05-10T11:26:16;17.30;99.90
19138;DHT22;68178;52.188;5.598;2023-05-10T11:28:46;17.30;99.90
19138;DHT22;68178;52.188;5.598;2023-05-10T11:31:22;17.30;99.90
19138;DHT22;68178;52.188;5.598;2023-05-10T11:33:55;17.30;99.90
19138;DHT22;68178;52.188;5.598;2023-05-10T11:36:25;17.30;99.90
19138;DHT22;68178;52.188;5.598;2023-05-10T11:38:52;17.30;99.90
19138;DHT22;68178;52.188;5.598;2023-05-10T11:41:18;17.30;99.90
19138;DHT22;68178;52.188;5.598;2023-05-10T11:43:49;17.30;99.90
19138;DHT22;68178;52.188;5.598;2023-05-10T11:46:15;17.50;99.90
19138;DHT22;68178;52.188;5.598;2023-05-10T11:48:42;17.60;99.90
19138;DHT22;68178;52.188;5.598;2023-05-10T11:51:11;17.80;99.90
19138;DHT22;68178;52.188;5.598;2023-05-10T11:53:40;17.80;99.90
19138;DHT22;68178;52.188;5.598;2023-05-10T11:56:10;17.80;99.90
19138;DHT22;68178;52.188;5.598;2023-05-10T11:58:37;17.70;99.90
19138;DHT22;68178;52.188;5.598;2023-05-10T12:01:04;17.60;99.90
19138;DHT22;68178;52.188;5.598;2023-05-10T12:03:30;17.50;99.90
19138;DHT22;68178;52.188;5.598;2023-05-10T12:05:57;17.50;99.90
19138;DHT22;68178;52.188;5.598;2023-05-10T12:08:32;17.70;99.90
19138;DHT22;68178;52.188;5.598;2023-05-10T12:11:08;17.80;99.90
19138;DHT22;68178;52.188;5.598;2023-05-10T12:13:39;17.70;99.90
19138;DHT22;68178;52.188;5.598;2023-05-10T12:16:24;17.70;99.90
19138;DHT22;68178;52.188;5.598;2023-05-10T12:18:51;17.70;99.90
19138;DHT22;68178;52.188;5.598;2023-05-10T12:21:17;17.80;99.90
19138;DHT22;68178;52.188;5.598;2023-05-10T12:23:45;17.80;99.90
19138;DHT22;68178;52.188;5.598;2023-05-10T12:26:11;17.80;99.90
19138;DHT22;68178;52.188;5.598;2023-05-10T12:28:37;17.80;99.90
19138;DHT22;68178;52.188;5.598;2023-05-10T12:31:03;18.10;99.90
19138;DHT22;68178;52.188;5.598;2023-05-10T12:33:36;18.10;99.90
19138;DHT22;68178;52.188;5.598;2023-05-10T12:36:04;18.10;99.90
19138;DHT22;68178;52.188;5.598;2023-05-10T12:38:35;18.10;99.90
19138;DHT22;68178;52.188;5.598;2023-05-10T12:41:04;18.10;99.90
19138;DHT22;68178;52.188;5.598;2023-05-10T12:43:32;17.90;99.90
19138;DHT22;68178;52.188;5.598;2023-05-10T12:45:58;17.80;99.90
19138;DHT22;68178;52.188;5.598;2023-05-10T12:48:24;17.70;99.90
19138;DHT22;68178;52.188;5.598;2023-05-10T12:50:49;17.60;99.90
19138;DHT22;68178;52.188;5.598;2023-05-10T12:53:18;17.50;99.90
19138;DHT22;68178;52.188;5.598;2023-05-10T12:55:44;17.90;99.90
19138;DHT22;68178;52.188;5.598;2023-05-10T12:58:10;18.30;99.90
19138;DHT22;68178;52.188;5.598;2023-05-10T13:00:35;18.40;99.90
19138;DHT22;68178;52.188;5.598;2023-05-10T13:03:06;18.50;99.90
19138;DHT22;68178;52.188;5.598;2023-05-10T13:05:34;18.50;99.90
19138;DHT22;68178;52.188;5.598;2023-05-10T13:08:03;18.70;99.90
19138;DHT22;68178;52.188;5.598;2023-05-10T13:10:31;18.70;99.90
19138;DHT22;68178;52.188;5.598;2023-05-10T13:12:58;18.60;99.90
19138;DHT22;68178;52.188;5.598;2023-05-10T13:15:24;18.70;99.90
19138;DHT22;68178;52.188;5.598;2023-05-10T13:17:50;18.80;99.90
19138;DHT22;68178;52.188;5.598;2023-05-10T13:20:16;18.90;99.90
19138;DHT22;68178;52.188;5.598;2023-05-10T13:22:44;19.10;99.90
19138;DHT22;68178;52.188;5.598;2023-05-10T13:25:10;19.20;99.90
19138;DHT22;68178;52.188;5.598;2023-05-10T13:27:36;19.70;99.90
19138;DHT22;68178;52.188;5.598;2023-05-10T13:30:02;20.00;99.90
19138;DHT22;68178;52.188;5.598;2023-05-10T13:32:29;20.60;99.90
19138;DHT22;68178;52.188;5.598;2023-05-10T13:34:55;21.50;99.90
19138;DHT22;68178;52.188;5.598;2023-05-10T13:37:22;21.40;99.90
19138;DHT22;68178;52.188;5.598;2023-05-10T13:39:48;21.00;99.90
19138;DHT22;68178;52.188;5.598;2023-05-10T13:42:14;20.60;99.90
19138;DHT22;68178;52.188;5.598;2023-05-10T13:44:39;20.10;99.90
19138;DHT22;68178;52.188;5.598;2023-05-10T13:47:05;20.10;99.90
19138;DHT22;68178;52.188;5.598;2023-05-10T13:49:31;19.50;99.90
19138;DHT22;68178;52.188;5.598;2023-05-10T13:51:56;19.30;99.90
19138;DHT22;68178;52.188;5.598;2023-05-10T13:54:23;19.10;99.90
19138;DHT22;68178;52.188;5.598;2023-05-10T13:56:54;19.00;99.90
19138;DHT22;68178;52.188;5.598;2023-05-10T13:59:20;18.90;99.90
19138;DHT22;68178;52.188;5.598;2023-05-10T14:01:45;18.90;99.90
19138;DHT22;68178;52.188;5.598;2023-05-10T14:04:11;18.90;99.90
19138;DHT22;68178;52.188;5.598;2023-05-10T14:06:37;18.80;99.90
19138;DHT22;68178;52.188;5.598;2023-05-10T14:09:03;18.80;99.90
19138;DHT22;68178;52.188;5.598;2023-05-10T14:11:28;18.60;99.90
19138;DHT22;68178;52.188;5.598;2023-05-10T14:13:54;18.40;99.90
19138;DHT22;68178;52.188;5.598;2023-05-10T14:16:20;18.20;99.90
19138;DHT22;68178;52.188;5.598;2023-05-10T14:18:46;17.60;99.90
19138;DHT22;68178;52.188;5.598;2023-05-10T14:21:12;17.40;99.90
19138;DHT22;68178;52.188;5.598;2023-05-10T14:23:37;17.20;99.90
19138;DHT22;68178;52.188;5.598;2023-05-10T14:26:03;16.90;99.90
19138;DHT22;68178;52.188;5.598;2023-05-10T14:28:29;16.80;99.90
19138;DHT22;68178;52.188;5.598;2023-05-10T14:30:54;16.60;99.90
19138;DHT22;68178;52.188;5.598;2023-05-10T14:33:20;16.50;99.90
19138;DHT22;68178;52.188;5.598;2023-05-10T14:35:46;16.50;99.90
19138;DHT22;68178;52.188;5.598;2023-05-10T14:38:12;16.40;99.90
19138;DHT22;68178;52.188;5.598;2023-05-10T14:40:38;16.10;99.90
19138;DHT22;68178;52.188;5.598;2023-05-10T14:43:03;16.10;99.90
19138;DHT22;68178;52.188;5.598;2023-05-10T14:45:29;16.00;99.90
19138;DHT22;68178;52.188;5.598;2023-05-10T14:47:55;15.90;99.90
19138;DHT22;68178;52.188;5.598;2023-05-10T14:50:20;16.10;99.90
19138;DHT22;68178;52.188;5.598;2023-05-10T14:52:46;16.10;99.90
19138;DHT22;68178;52.188;5.598;2023-05-10T14:55:11;16.00;99.90
19138;DHT22;68178;52.188;5.598;2023-05-10T14:57:37;15.90;99.90
19138;DHT22;68178;52.188;5.598;2023-05-10T15:00:03;16.10;99.90
19138;DHT22;68178;52.188;5.598;2023-05-10T15:02:30;15.80;99.90
19138;DHT22;68178;52.188;5.598;2023-05-10T15:04:56;16.00;99.90
19138;DHT22;68178;52.188;5.598;2023-05-10T15:07:23;15.80;99.90
19138;DHT22;68178;52.188;5.598;2023-05-10T15:09:48;15.60;99.90
19138;DHT22;68178;52.188;5.598;2023-05-10T15:12:14;15.70;99.90
19138;DHT22;68178;52.188;5.598;2023-05-10T15:14:39;15.70;99.90
19138;DHT22;68178;52.188;5.598;2023-05-10T15:17:06;15.70;99.90
19138;DHT22;68178;52.188;5.598;2023-05-10T15:19:32;15.70;99.90
19138;DHT22;68178;52.188;5.598;2023-05-10T15:21:58;15.60;99.90
19138;DHT22;68178;52.188;5.598;2023-05-10T15:24:24;15.60;99.90
19138;DHT22;68178;52.188;5.598;2023-05-10T15:26:50;15.60;99.90
19138;DHT22;68178;52.188;5.598;2023-05-10T15:29:15;15.60;99.90
19138;DHT22;68178;52.188;5.598;2023-05-10T15:31:46;15.50;99.90
19138;DHT22;68178;52.188;5.598;2023-05-10T15:34:11;15.50;99.90
19138;DHT22;68178;52.188;5.598;2023-05-10T15:36:37;15.50;99.90
19138;DHT22;68178;52.188;5.598;2023-05-10T15:39:03;15.40;99.90
19138;DHT22;68178;52.188;5.598;2023-05-10T15:41:29;15.50;99.90
19138;DHT22;68178;52.188;5.598;2023-05-10T15:43:55;15.60;99.90
19138;DHT22;68178;52.188;5.598;2023-05-10T15:46:21;15.60;99.90
19138;DHT22;68178;52.188;5.598;2023-05-10T15:48:46;15.70;99.90
19138;DHT22;68178;52.188;5.598;2023-05-10T15:51:12;15.60;99.90
19138;DHT22;68178;52.188;5.598;2023-05-10T15:53:38;15.60;99.90
19138;DHT22;68178;52.188;5.598;2023-05-10T15:56:04;15.60;99.90
19138;DHT22;68178;52.188;5.598;2023-05-10T15:58:30;15.60;99.90
19138;DHT22;68178;52.188;5.598;2023-05-10T16:00:56;15.60;99.90
19138;DHT22;68178;52.188;5.598;2023-05-10T16:03:22;15.60;99.90
19138;DHT22;68178;52.188;5.598;2023-05-10T16:05:47;15.70;99.90